sensor_id;sensor_type;location;lat;lon;timestamp;pressure;altitude;pressure_sealevel;temperature
45393;BMP280;31129;44.810;10.334;2023-04-23T00:02:08;100452.97;;;16.68
45393;BMP280;31129;44.810;10.334;2023-04-23T00:04:36;100454.44;;;16.69
45393;BMP280;31129;44.810;10.334;2023-04-23T00:07:06;100447.97;;;16.67
45393;BMP280;31129;44.810;10.334;2023-04-23T00:09:31;100448.31;;;16.58
45393;BMP280;31129;44.810;10.334;2023-04-23T00:12:00;100452.31;;;16.57
45393;BMP280;31129;44.810;10.334;2023-04-23T00:14:26;100444.78;;;16.57
45393;BMP280;31129;44.810;10.334;2023-04-23T00:16:52;100446.50;;;16.60
45393;BMP280;31129;44.810;10.334;2023-04-23T00:19:18;100450.81;;;16.55
45393;BMP280;31129;44.810;10.334;2023-04-23T00:21:43;100443.16;;;16.43
45393;BMP280;31129;44.810;10.334;2023-04-23T00:24:09;100434.63;;;16.46
45393;BMP280;31129;44.810;10.334;2023-04-23T00:26:34;100433.13;;;16.45
45393;BMP280;31129;44.810;10.334;2023-04-23T00:29:00;100426.16;;;16.39
45393;BMP280;31129;44.810;10.334;2023-04-23T00:31:25;100421.41;;;16.39
45393;BMP280;31129;44.810;10.334;2023-04-23T00:33:52;100424.16;;;16.39
45393;BMP280;31129;44.810;10.334;2023-04-23T00:36:21;100417.59;;;16.42
45393;BMP280;31129;44.810;10.334;2023-04-23T00:38:47;100424.16;;;16.39
45393;BMP280;31129;44.810;10.334;2023-04-23T00:41:13;100428.63;;;16.42
45393;BMP280;31129;44.810;10.334;2023-04-23T00:43:39;100425.69;;;16.35
45393;BMP280;31129;44.810;10.334;2023-04-23T00:46:05;100423.44;;;16.33
45393;BMP280;31129;44.810;10.334;2023-04-23T00:48:32;100426.44;;;16.35
45393;BMP280;31129;44.810;10.334;2023-04-23T00:50:59;100427.69;;;16.34
45393;BMP280;31129;44.810;10.334;2023-04-23T00:53:27;100426.50;;;16.30
45393;BMP280;31129;44.810;10.334;2023-04-23T00:55:52;100421.56;;;16.23
45393;BMP280;31129;44.810;10.334;2023-04-23T00:58:18;100415.53;;;16.24
45393;BMP280;31129;44.810;10.334;2023-04-23T01:00:45;100419.25;;;16.27
45393;BMP280;31129;44.810;10.334;2023-04-23T01:03:12;100416.50;;;16.27
45393;BMP280;31129;44.810;10.334;2023-04-23T01:05:40;100420.56;;;16.20
45393;BMP280;31129;44.810;10.334;2023-04-23T01:08:08;100416.13;;;16.11
45393;BMP280;31129;44.810;10.334;2023-04-23T01:10:34;100426.13;;;16.14
45393;BMP280;31129;44.810;10.334;2023-04-23T01:13:00;100421.63;;;16.11
45393;BMP280;31129;44.810;10.334;2023-04-23T01:15:25;100425.81;;;16.18
45393;BMP280;31129;44.810;10.334;2023-04-23T01:17:50;100412.16;;;16.07
45393;BMP280;31129;44.810;10.334;2023-04-23T01:20:17;100426.44;;;16.05
45393;BMP280;31129;44.810;10.334;2023-04-23T01:22:43;100415.69;;;16.02
45393;BMP280;31129;44.810;10.334;2023-04-23T01:25:08;100419.44;;;16.04
45393;BMP280;31129;44.810;10.334;2023-04-23T01:27:34;100416.72;;;15.99
45393;BMP280;31129;44.810;10.334;2023-04-23T01:30:02;100422.28;;;15.93
45393;BMP280;31129;44.810;10.334;2023-04-23T01:32:29;100415.44;;;16.00
45393;BMP280;31129;44.810;10.334;2023-04-23T01:34:55;100412.22;;;15.96
45393;BMP280;31129;44.810;10.334;2023-04-23T01:37:25;100408.53;;;15.93
45393;BMP280;31129;44.810;10.334;2023-04-23T01:39:51;100407.97;;;15.95
45393;BMP280;31129;44.810;10.334;2023-04-23T01:42:17;100401.81;;;15.83
45393;BMP280;31129;44.810;10.334;2023-04-23T01:44:42;100404.03;;;15.90
45393;BMP280;31129;44.810;10.334;2023-04-23T01:47:08;100393.03;;;15.85
45393;BMP280;31129;44.810;10.334;2023-04-23T01:49:33;100400.25;;;15.93
45393;BMP280;31129;44.810;10.334;2023-04-23T01:51:59;100399.13;;;15.72
45393;BMP280;31129;44.810;10.334;2023-04-23T01:54:24;100395.53;;;15.88
45393;BMP280;31129;44.810;10.334;2023-04-23T01:56:50;100386.75;;;15.90
45393;BMP280;31129;44.810;10.334;2023-04-23T01:59:19;100390.78;;;15.89
45393;BMP280;31129;44.810;10.334;2023-04-23T02:01:46;100389.28;;;15.88
45393;BMP280;31129;44.810;10.334;2023-04-23T02:04:13;100388.78;;;15.84
45393;BMP280;31129;44.810;10.334;2023-04-23T02:06:40;100392.53;;;15.86
45393;BMP280;31129;44.810;10.334;2023-04-23T02:09:06;100400.50;;;15.90
45393;BMP280;31129;44.810;10.334;2023-04-23T02:11:32;100397.34;;;15.80
45393;BMP280;31129;44.810;10.334;2023-04-23T02:13:57;100396.09;;;15.81
45393;BMP280;31129;44.810;10.334;2023-04-23T02:16:22;100394.78;;;15.88
45393;BMP280;31129;44.810;10.334;2023-04-23T02:18:49;100389.03;;;15.86
45393;BMP280;31129;44.810;10.334;2023-04-23T02:21:15;100389.50;;;15.90
45393;BMP280;31129;44.810;10.334;2023-04-23T02:23:41;100385.31;;;15.83
45393;BMP280;31129;44.810;10.334;2023-04-23T02:26:07;100396.25;;;15.94
45393;BMP280;31129;44.810;10.334;2023-04-23T02:28:32;100386.72;;;15.95
45393;BMP280;31129;44.810;10.334;2023-04-23T02:30:58;100380.53;;;15.84
45393;BMP280;31129;44.810;10.334;2023-04-23T02:33:23;100380.28;;;15.87
45393;BMP280;31129;44.810;10.334;2023-04-23T02:35:52;100375.09;;;15.72
45393;BMP280;31129;44.810;10.334;2023-04-23T02:38:18;100379.06;;;15.83
45393;BMP280;31129;44.810;10.334;2023-04-23T02:40:43;100385.81;;;15.82
45393;BMP280;31129;44.810;10.334;2023-04-23T02:43:08;100386.34;;;15.74
45393;BMP280;31129;44.810;10.334;2023-04-23T02:45:34;100391.59;;;15.72
45393;BMP280;31129;44.810;10.334;2023-04-23T02:47:59;100390.19;;;15.66
45393;BMP280;31129;44.810;10.334;2023-04-23T02:50:25;100398.72;;;15.57
45393;BMP280;31129;44.810;10.334;2023-04-23T02:52:50;100401.53;;;15.40
45393;BMP280;31129;44.810;10.334;2023-04-23T02:55:16;100391.28;;;15.46
45393;BMP280;31129;44.810;10.334;2023-04-23T02:57:42;100404.81;;;15.44
45393;BMP280;31129;44.810;10.334;2023-04-23T03:00:08;100401.00;;;15.53
45393;BMP280;31129;44.810;10.334;2023-04-23T03:02:39;100397.28;;;15.50
45393;BMP280;31129;44.810;10.334;2023-04-23T03:05:05;100394.31;;;15.37
45393;BMP280;31129;44.810;10.334;2023-04-23T03:07:31;100393.53;;;15.42
45393;BMP280;31129;44.810;10.334;2023-04-23T03:09:57;100390.78;;;15.42
45393;BMP280;31129;44.810;10.334;2023-04-23T03:12:22;100393.28;;;15.46
45393;BMP280;31129;44.810;10.334;2023-04-23T03:14:48;100392.28;;;15.49
45393;BMP280;31129;44.810;10.334;2023-04-23T03:17:13;100387.28;;;15.47
45393;BMP280;31129;44.810;10.334;2023-04-23T03:19:39;100384.78;;;15.44
45393;BMP280;31129;44.810;10.334;2023-04-23T03:22:05;100388.03;;;15.42
45393;BMP280;31129;44.810;10.334;2023-04-23T03:24:32;100390.03;;;15.41
45393;BMP280;31129;44.810;10.334;2023-04-23T03:26:57;100381.28;;;15.43
45393;BMP280;31129;44.810;10.334;2023-04-23T03:29:22;100387.53;;;15.49
45393;BMP280;31129;44.810;10.334;2023-04-23T03:31:48;100384.28;;;15.45
45393;BMP280;31129;44.810;10.334;2023-04-23T03:34:13;100393.88;;;15.27
45393;BMP280;31129;44.810;10.334;2023-04-23T03:36:39;100396.66;;;15.22
45393;BMP280;31129;44.810;10.334;2023-04-23T03:39:05;100392.66;;;15.17
45393;BMP280;31129;44.810;10.334;2023-04-23T03:41:44;100396.44;;;15.09
45393;BMP280;31129;44.810;10.334;2023-04-23T03:44:11;100388.44;;;15.11
45393;BMP280;31129;44.810;10.334;2023-04-23T03:46:40;100399.19;;;15.14
45393;BMP280;31129;44.810;10.334;2023-04-23T03:49:05;100394.44;;;15.15
45393;BMP280;31129;44.810;10.334;2023-04-23T03:51:31;100402.94;;;15.06
45393;BMP280;31129;44.810;10.334;2023-04-23T03:53:56;100402.97;;;14.94
45393;BMP280;31129;44.810;10.334;2023-04-23T03:56:40;100406.75;;;14.80
45393;BMP280;31129;44.810;10.334;2023-04-23T03:59:16;100408.78;;;14.69
45393;BMP280;31129;44.810;10.334;2023-04-23T04:01:43;100413.50;;;14.79
45393;BMP280;31129;44.810;10.334;2023-04-23T04:04:08;100410.31;;;14.58
45393;BMP280;31129;44.810;10.334;2023-04-23T04:06:34;100409.78;;;14.49
45393;BMP280;31129;44.810;10.334;2023-04-23T04:09:00;100419.03;;;14.57
45393;BMP280;31129;44.810;10.334;2023-04-23T04:11:26;100418.78;;;14.44
45393;BMP280;31129;44.810;10.334;2023-04-23T04:13:51;100407.81;;;14.44
45393;BMP280;31129;44.810;10.334;2023-04-23T04:16:17;100418.50;;;14.36
45393;BMP280;31129;44.810;10.334;2023-04-23T04:18:43;100419.25;;;14.37
45393;BMP280;31129;44.810;10.334;2023-04-23T04:21:08;100417.03;;;14.24
45393;BMP280;31129;44.810;10.334;2023-04-23T04:23:34;100418.28;;;14.28
45393;BMP280;31129;44.810;10.334;2023-04-23T04:26:00;100415.75;;;14.36
45393;BMP280;31129;44.810;10.334;2023-04-23T04:28:25;100408.78;;;14.24
45393;BMP280;31129;44.810;10.334;2023-04-23T04:30:54;100413.78;;;14.14
45393;BMP280;31129;44.810;10.334;2023-04-23T04:33:21;100415.75;;;14.19
45393;BMP280;31129;44.810;10.334;2023-04-23T04:35:47;100411.81;;;14.26
45393;BMP280;31129;44.810;10.334;2023-04-23T04:38:16;100418.53;;;14.25
45393;BMP280;31129;44.810;10.334;2023-04-23T04:40:42;100420.53;;;14.24
45393;BMP280;31129;44.810;10.334;2023-04-23T04:43:07;100406.53;;;14.17
45393;BMP280;31129;44.810;10.334;2023-04-23T04:45:34;100426.00;;;14.24
45393;BMP280;31129;44.810;10.334;2023-04-23T04:48:02;100423.78;;;14.34
45393;BMP280;31129;44.810;10.334;2023-04-23T04:50:28;100430.75;;;14.24
45393;BMP280;31129;44.810;10.334;2023-04-23T04:52:53;100432.75;;;14.35
45393;BMP280;31129;44.810;10.334;2023-04-23T04:55:19;100434.00;;;14.34
45393;BMP280;31129;44.810;10.334;2023-04-23T04:57:44;100438.50;;;14.31
45393;BMP280;31129;44.810;10.334;2023-04-23T05:00:20;100430.25;;;14.48
45393;BMP280;31129;44.810;10.334;2023-04-23T05:02:48;100430.78;;;14.41
45393;BMP280;31129;44.810;10.334;2023-04-23T05:05:14;100434.25;;;14.41
45393;BMP280;31129;44.810;10.334;2023-04-23T05:07:39;100421.03;;;14.45
45393;BMP280;31129;44.810;10.334;2023-04-23T05:10:05;100424.03;;;14.42
45393;BMP280;31129;44.810;10.334;2023-04-23T05:12:31;100421.28;;;14.53
45393;BMP280;31129;44.810;10.334;2023-04-23T05:14:56;100427.78;;;14.39
45393;BMP280;31129;44.810;10.334;2023-04-23T05:17:22;100430.25;;;14.59
45393;BMP280;31129;44.810;10.334;2023-04-23T05:19:47;100431.00;;;14.48
45393;BMP280;31129;44.810;10.334;2023-04-23T05:22:13;100430.78;;;14.57
45393;BMP280;31129;44.810;10.334;2023-04-23T05:24:39;100430.25;;;14.53
45393;BMP280;31129;44.810;10.334;2023-04-23T05:27:04;100421.78;;;14.51
45393;BMP280;31129;44.810;10.334;2023-04-23T05:29:33;100427.25;;;14.51
45393;BMP280;31129;44.810;10.334;2023-04-23T05:31:58;100428.50;;;14.73
45393;BMP280;31129;44.810;10.334;2023-04-23T05:34:24;100430.00;;;14.68
45393;BMP280;31129;44.810;10.334;2023-04-23T05:36:49;100431.72;;;14.77
45393;BMP280;31129;44.810;10.334;2023-04-23T05:39:15;100437.97;;;14.77
45393;BMP280;31129;44.810;10.334;2023-04-23T05:41:40;100435.50;;;14.68
45393;BMP280;31129;44.810;10.334;2023-04-23T05:44:05;100439.22;;;14.65
45393;BMP280;31129;44.810;10.334;2023-04-23T05:46:34;100435.00;;;14.64
45393;BMP280;31129;44.810;10.334;2023-04-23T05:48:59;100435.19;;;14.83
45393;BMP280;31129;44.810;10.334;2023-04-23T05:51:25;100435.94;;;14.89
45393;BMP280;31129;44.810;10.334;2023-04-23T05:53:54;100434.44;;;15.05
45393;BMP280;31129;44.810;10.334;2023-04-23T05:56:19;100438.41;;;15.15
45393;BMP280;31129;44.810;10.334;2023-04-23T05:58:45;100451.38;;;15.20
45393;BMP280;31129;44.810;10.334;2023-04-23T06:01:10;100439.31;;;15.34
45393;BMP280;31129;44.810;10.334;2023-04-23T06:03:36;100450.47;;;15.58
45393;BMP280;31129;44.810;10.334;2023-04-23T06:06:02;100442.94;;;15.64
45393;BMP280;31129;44.810;10.334;2023-04-23T06:08:27;100447.69;;;15.64
45393;BMP280;31129;44.810;10.334;2023-04-23T06:10:53;100438.91;;;15.76
45393;BMP280;31129;44.810;10.334;2023-04-23T06:13:20;100444.53;;;15.90
45393;BMP280;31129;44.810;10.334;2023-04-23T06:15:45;100449.47;;;16.02
45393;BMP280;31129;44.810;10.334;2023-04-23T06:18:11;100446.22;;;16.04
45393;BMP280;31129;44.810;10.334;2023-04-23T06:20:39;100443.84;;;16.19
45393;BMP280;31129;44.810;10.334;2023-04-23T06:23:05;100448.06;;;16.26
45393;BMP280;31129;44.810;10.334;2023-04-23T06:25:30;100457.97;;;16.40
45393;BMP280;31129;44.810;10.334;2023-04-23T06:27:56;100452.84;;;16.49
45393;BMP280;31129;44.810;10.334;2023-04-23T06:30:26;100451.13;;;16.52
45393;BMP280;31129;44.810;10.334;2023-04-23T06:32:51;100459.59;;;16.54
45393;BMP280;31129;44.810;10.334;2023-04-23T06:35:17;100451.81;;;16.58
45393;BMP280;31129;44.810;10.334;2023-04-23T06:37:42;100451.25;;;16.60
45393;BMP280;31129;44.810;10.334;2023-04-23T06:40:08;100447.47;;;16.68
45393;BMP280;31129;44.810;10.334;2023-04-23T06:42:33;100453.56;;;16.80
45393;BMP280;31129;44.810;10.334;2023-04-23T06:45:21;100455.38;;;16.77
45393;BMP280;31129;44.810;10.334;2023-04-23T06:47:47;100447.59;;;17.00
45393;BMP280;31129;44.810;10.334;2023-04-23T06:50:14;100452.75;;;17.09
45393;BMP280;31129;44.810;10.334;2023-04-23T06:52:39;100454.66;;;17.39
45393;BMP280;31129;44.810;10.334;2023-04-23T06:55:05;100455.13;;;17.43
45393;BMP280;31129;44.810;10.334;2023-04-23T06:57:31;100446.91;;;17.37
45393;BMP280;31129;44.810;10.334;2023-04-23T06:59:56;100456.63;;;17.44
45393;BMP280;31129;44.810;10.334;2023-04-23T07:02:25;100452.81;;;17.47
45393;BMP280;31129;44.810;10.334;2023-04-23T07:04:51;100449.22;;;17.33
45393;BMP280;31129;44.810;10.334;2023-04-23T07:07:16;100455.88;;;17.43
45393;BMP280;31129;44.810;10.334;2023-04-23T07:09:42;100452.38;;;17.43
45393;BMP280;31129;44.810;10.334;2023-04-23T07:12:08;100446.38;;;17.57
45393;BMP280;31129;44.810;10.334;2023-04-23T07:14:33;100448.78;;;17.66
45393;BMP280;31129;44.810;10.334;2023-04-23T07:16:58;100458.31;;;17.65
45393;BMP280;31129;44.810;10.334;2023-04-23T07:19:24;100442.41;;;17.58
45393;BMP280;31129;44.810;10.334;2023-04-23T07:21:49;100446.53;;;17.65
45393;BMP280;31129;44.810;10.334;2023-04-23T07:24:15;100437.94;;;17.87
45393;BMP280;31129;44.810;10.334;2023-04-23T07:26:41;100442.53;;;17.98
45393;BMP280;31129;44.810;10.334;2023-04-23T07:29:06;100441.28;;;18.12
45393;BMP280;31129;44.810;10.334;2023-04-23T07:31:34;100435.44;;;18.02
45393;BMP280;31129;44.810;10.334;2023-04-23T07:34:00;100430.47;;;18.14
45393;BMP280;31129;44.810;10.334;2023-04-23T07:36:25;100427.38;;;18.04
45393;BMP280;31129;44.810;10.334;2023-04-23T07:38:51;100430.41;;;18.20
45393;BMP280;31129;44.810;10.334;2023-04-23T07:41:17;100433.13;;;18.06
45393;BMP280;31129;44.810;10.334;2023-04-23T07:43:42;100427.88;;;18.03
45393;BMP280;31129;44.810;10.334;2023-04-23T07:46:08;100435.41;;;18.21
45393;BMP280;31129;44.810;10.334;2023-04-23T07:48:33;100422.31;;;18.22
45393;BMP280;31129;44.810;10.334;2023-04-23T07:50:59;100433.16;;;18.33
45393;BMP280;31129;44.810;10.334;2023-04-23T07:53:25;100426.59;;;18.36
45393;BMP280;31129;44.810;10.334;2023-04-23T07:55:55;100433.84;;;18.39
45393;BMP280;31129;44.810;10.334;2023-04-23T07:58:23;100430.66;;;18.48
45393;BMP280;31129;44.810;10.334;2023-04-23T08:00:48;100418.94;;;18.42
45393;BMP280;31129;44.810;10.334;2023-04-23T08:03:14;100425.66;;;18.46
45393;BMP280;31129;44.810;10.334;2023-04-23T08:05:40;100416.31;;;18.63
45393;BMP280;31129;44.810;10.334;2023-04-23T08:08:06;100420.47;;;18.69
45393;BMP280;31129;44.810;10.334;2023-04-23T08:10:32;100423.78;;;18.68
45393;BMP280;31129;44.810;10.334;2023-04-23T08:12:58;100415.66;;;18.83
45393;BMP280;31129;44.810;10.334;2023-04-23T08:15:23;100417.91;;;18.84
45393;BMP280;31129;44.810;10.334;2023-04-23T08:17:48;100417.16;;;18.97
45393;BMP280;31129;44.810;10.334;2023-04-23T08:20:14;100411.72;;;19.05
45393;BMP280;31129;44.810;10.334;2023-04-23T08:22:40;100414.91;;;19.09
45393;BMP280;31129;44.810;10.334;2023-04-23T08:25:06;100412.59;;;19.00
45393;BMP280;31129;44.810;10.334;2023-04-23T08:27:31;100412.09;;;19.22
45393;BMP280;31129;44.810;10.334;2023-04-23T08:29:56;100409.03;;;19.25
45393;BMP280;31129;44.810;10.334;2023-04-23T08:32:22;100411.31;;;19.35
45393;BMP280;31129;44.810;10.334;2023-04-23T08:34:48;100406.66;;;19.29
45393;BMP280;31129;44.810;10.334;2023-04-23T08:37:13;100414.28;;;19.37
45393;BMP280;31129;44.810;10.334;2023-04-23T08:39:39;100413.75;;;19.38
45393;BMP280;31129;44.810;10.334;2023-04-23T08:42:32;100406.19;;;19.39
45393;BMP280;31129;44.810;10.334;2023-04-23T08:44:58;100409.44;;;19.50
45393;BMP280;31129;44.810;10.334;2023-04-23T08:47:26;100407.81;;;19.55
45393;BMP280;31129;44.810;10.334;2023-04-23T08:49:53;100404.19;;;19.60
45393;BMP280;31129;44.810;10.334;2023-04-23T08:52:24;100408.50;;;19.68
45393;BMP280;31129;44.810;10.334;2023-04-23T08:54:58;100406.91;;;19.73
45393;BMP280;31129;44.810;10.334;2023-04-23T08:57:25;100403.25;;;19.99
45393;BMP280;31129;44.810;10.334;2023-04-23T08:59:51;100404.44;;;20.11
45393;BMP280;31129;44.810;10.334;2023-04-23T09:02:17;100400.38;;;20.33
45393;BMP280;31129;44.810;10.334;2023-04-23T09:04:44;100398.22;;;20.46
45393;BMP280;31129;44.810;10.334;2023-04-23T09:07:11;100397.28;;;20.44
45393;BMP280;31129;44.810;10.334;2023-04-23T09:09:37;100389.25;;;20.61
45393;BMP280;31129;44.810;10.334;2023-04-23T09:12:04;100398.25;;;20.54
45393;BMP280;31129;44.810;10.334;2023-04-23T09:14:31;100393.09;;;20.58
45393;BMP280;31129;44.810;10.334;2023-04-23T09:16:57;100397.38;;;20.59
45393;BMP280;31129;44.810;10.334;2023-04-23T09:19:25;100391.59;;;20.85
45393;BMP280;31129;44.810;10.334;2023-04-23T09:21:52;100396.94;;;20.83
45393;BMP280;31129;44.810;10.334;2023-04-23T09:24:20;100386.44;;;20.97
45393;BMP280;31129;44.810;10.334;2023-04-23T09:26:48;100395.81;;;20.79
45393;BMP280;31129;44.810;10.334;2023-04-23T09:29:18;100391.19;;;20.81
45393;BMP280;31129;44.810;10.334;2023-04-23T09:31:45;100391.59;;;20.93
45393;BMP280;31129;44.810;10.334;2023-04-23T09:34:14;100384.78;;;20.94
45393;BMP280;31129;44.810;10.334;2023-04-23T09:36:41;100377.25;;;21.10
45393;BMP280;31129;44.810;10.334;2023-04-23T09:39:13;100382.38;;;21.06
45393;BMP280;31129;44.810;10.334;2023-04-23T09:41:39;100387.44;;;21.22
45393;BMP280;31129;44.810;10.334;2023-04-23T09:44:05;100380.25;;;21.42
45393;BMP280;31129;44.810;10.334;2023-04-23T09:46:37;100381.91;;;21.53
45393;BMP280;31129;44.810;10.334;2023-04-23T09:49:04;100378.06;;;21.86
45393;BMP280;31129;44.810;10.334;2023-04-23T09:51:36;100373.56;;;21.83
45393;BMP280;31129;44.810;10.334;2023-04-23T09:54:01;100366.50;;;22.12
45393;BMP280;31129;44.810;10.334;2023-04-23T09:56:30;100372.06;;;22.20
45393;BMP280;31129;44.810;10.334;2023-04-23T09:58:56;100370.59;;;22.04
45393;BMP280;31129;44.810;10.334;2023-04-23T10:01:28;100366.69;;;22.14
45393;BMP280;31129;44.810;10.334;2023-04-23T10:03:54;100359.59;;;22.29
45393;BMP280;31129;44.810;10.334;2023-04-23T10:06:26;100365.50;;;22.40
45393;BMP280;31129;44.810;10.334;2023-04-23T10:08:55;100367.25;;;22.68
45393;BMP280;31129;44.810;10.334;2023-04-23T10:11:22;100362.94;;;22.75
45393;BMP280;31129;44.810;10.334;2023-04-23T10:13:47;100354.03;;;22.36
45393;BMP280;31129;44.810;10.334;2023-04-23T10:16:13;100347.19;;;22.30
45393;BMP280;31129;44.810;10.334;2023-04-23T10:18:38;100350.69;;;22.30
45393;BMP280;31129;44.810;10.334;2023-04-23T10:21:07;100353.44;;;22.45
45393;BMP280;31129;44.810;10.334;2023-04-23T10:23:35;100353.66;;;22.40
45393;BMP280;31129;44.810;10.334;2023-04-23T10:26:03;100356.63;;;22.34
45393;BMP280;31129;44.810;10.334;2023-04-23T10:28:31;100358.19;;;22.60
45393;BMP280;31129;44.810;10.334;2023-04-23T10:30:58;100359.53;;;22.91
45393;BMP280;31129;44.810;10.334;2023-04-23T10:33:25;100357.47;;;23.24
45393;BMP280;31129;44.810;10.334;2023-04-23T10:35:52;100357.75;;;22.79
45393;BMP280;31129;44.810;10.334;2023-04-23T10:38:19;100346.63;;;23.03
45393;BMP280;31129;44.810;10.334;2023-04-23T10:40:49;100356.09;;;23.08
45393;BMP280;31129;44.810;10.334;2023-04-23T10:43:16;100345.75;;;23.26
45393;BMP280;31129;44.810;10.334;2023-04-23T10:45:43;100356.00;;;23.23
45393;BMP280;31129;44.810;10.334;2023-04-23T10:48:08;100345.63;;;23.41
45393;BMP280;31129;44.810;10.334;2023-04-23T10:50:35;100351.19;;;23.41
45393;BMP280;31129;44.810;10.334;2023-04-23T10:53:01;100335.84;;;23.32
45393;BMP280;31129;44.810;10.334;2023-04-23T10:55:29;100329.31;;;23.37
45393;BMP280;31129;44.810;10.334;2023-04-23T10:57:55;100331.16;;;23.42
45393;BMP280;31129;44.810;10.334;2023-04-23T11:00:25;100323.03;;;23.54
45393;BMP280;31129;44.810;10.334;2023-04-23T11:02:50;100326.34;;;23.60
45393;BMP280;31129;44.810;10.334;2023-04-23T11:05:17;100326.66;;;23.81
45393;BMP280;31129;44.810;10.334;2023-04-23T11:08:01;100323.06;;;23.88
45393;BMP280;31129;44.810;10.334;2023-04-23T11:10:27;100314.88;;;23.73
45393;BMP280;31129;44.810;10.334;2023-04-23T11:12:54;100305.94;;;23.75
45393;BMP280;31129;44.810;10.334;2023-04-23T11:15:20;100298.69;;;23.54
45393;BMP280;31129;44.810;10.334;2023-04-23T11:20:13;100286.00;;;23.78
45393;BMP280;31129;44.810;10.334;2023-04-23T11:22:42;100291.09;;;23.55
45393;BMP280;31129;44.810;10.334;2023-04-23T11:25:09;100280.75;;;23.82
45393;BMP280;31129;44.810;10.334;2023-04-23T11:27:38;100273.03;;;23.90
45393;BMP280;31129;44.810;10.334;2023-04-23T11:30:07;100277.38;;;23.49
45393;BMP280;31129;44.810;10.334;2023-04-23T11:32:35;100278.94;;;23.43
45393;BMP280;31129;44.810;10.334;2023-04-23T11:35:01;100282.31;;;23.59
45393;BMP280;31129;44.810;10.334;2023-04-23T11:37:29;100277.97;;;23.82
45393;BMP280;31129;44.810;10.334;2023-04-23T11:39:54;100277.72;;;23.88
45393;BMP280;31129;44.810;10.334;2023-04-23T11:42:20;100272.53;;;24.02
45393;BMP280;31129;44.810;10.334;2023-04-23T11:44:46;100282.63;;;23.80
45393;BMP280;31129;44.810;10.334;2023-04-23T11:47:13;100264.91;;;24.02
45393;BMP280;31129;44.810;10.334;2023-04-23T11:49:42;100266.53;;;24.05
45393;BMP280;31129;44.810;10.334;2023-04-23T11:52:08;100260.09;;;24.03
45393;BMP280;31129;44.810;10.334;2023-04-23T11:54:34;100263.00;;;24.05
45393;BMP280;31129;44.810;10.334;2023-04-23T11:57:00;100265.31;;;24.16
45393;BMP280;31129;44.810;10.334;2023-04-23T11:59:27;100254.47;;;24.20
45393;BMP280;31129;44.810;10.334;2023-04-23T12:01:58;100262.19;;;24.38
45393;BMP280;31129;44.810;10.334;2023-04-23T12:04:24;100248.31;;;24.58
45393;BMP280;31129;44.810;10.334;2023-04-23T12:06:51;100245.16;;;24.71
45393;BMP280;31129;44.810;10.334;2023-04-23T12:09:18;100247.56;;;24.48
45393;BMP280;31129;44.810;10.334;2023-04-23T12:11:44;100236.22;;;24.36
45393;BMP280;31129;44.810;10.334;2023-04-23T12:14:11;100238.22;;;24.62
45393;BMP280;31129;44.810;10.334;2023-04-23T12:16:38;100235.09;;;24.95
45393;BMP280;31129;44.810;10.334;2023-04-23T12:19:15;100245.31;;;24.73
45393;BMP280;31129;44.810;10.334;2023-04-23T12:21:48;100235.88;;;24.59
45393;BMP280;31129;44.810;10.334;2023-04-23T12:24:14;100239.66;;;24.90
45393;BMP280;31129;44.810;10.334;2023-04-23T12:26:40;100235.22;;;24.77
45393;BMP280;31129;44.810;10.334;2023-04-23T12:29:07;100226.63;;;25.21
45393;BMP280;31129;44.810;10.334;2023-04-23T12:31:32;100224.88;;;25.45
45393;BMP280;31129;44.810;10.334;2023-04-23T12:34:03;100228.25;;;25.44
45393;BMP280;31129;44.810;10.334;2023-04-23T12:36:29;100226.78;;;25.43
45393;BMP280;31129;44.810;10.334;2023-04-23T12:39:21;100222.19;;;25.76
45393;BMP280;31129;44.810;10.334;2023-04-23T12:41:49;100225.47;;;25.53
45393;BMP280;31129;44.810;10.334;2023-04-23T12:44:15;100222.22;;;25.38
45393;BMP280;31129;44.810;10.334;2023-04-23T12:46:40;100213.81;;;25.86
45393;BMP280;31129;44.810;10.334;2023-04-23T12:49:06;100213.97;;;25.59
45393;BMP280;31129;44.810;10.334;2023-04-23T12:51:31;100213.25;;;26.18
45393;BMP280;31129;44.810;10.334;2023-04-23T12:54:00;100206.63;;;26.54
45393;BMP280;31129;44.810;10.334;2023-04-23T12:56:25;100200.75;;;26.19
45393;BMP280;31129;44.810;10.334;2023-04-23T12:58:51;100215.56;;;26.31
45393;BMP280;31129;44.810;10.334;2023-04-23T13:01:16;100205.41;;;26.36
45393;BMP280;31129;44.810;10.334;2023-04-23T13:03:45;100202.22;;;26.51
45393;BMP280;31129;44.810;10.334;2023-04-23T13:06:10;100197.28;;;26.40
45393;BMP280;31129;44.810;10.334;2023-04-23T13:08:35;100196.38;;;26.68
45393;BMP280;31129;44.810;10.334;2023-04-23T13:11:01;100195.03;;;26.48
45393;BMP280;31129;44.810;10.334;2023-04-23T13:13:26;100193.31;;;26.43
45393;BMP280;31129;44.810;10.334;2023-04-23T13:15:52;100182.69;;;26.62
45393;BMP280;31129;44.810;10.334;2023-04-23T13:18:18;100175.13;;;26.96
45393;BMP280;31129;44.810;10.334;2023-04-23T13:20:44;100165.34;;;27.18
45393;BMP280;31129;44.810;10.334;2023-04-23T13:23:09;100161.09;;;26.96
45393;BMP280;31129;44.810;10.334;2023-04-23T13:25:36;100165.91;;;27.05
45393;BMP280;31129;44.810;10.334;2023-04-23T13:28:01;100161.78;;;27.39
45393;BMP280;31129;44.810;10.334;2023-04-23T13:30:27;100155.16;;;27.23
45393;BMP280;31129;44.810;10.334;2023-04-23T13:32:52;100156.09;;;27.60
45393;BMP280;31129;44.810;10.334;2023-04-23T13:35:19;100151.56;;;27.55
45393;BMP280;31129;44.810;10.334;2023-04-23T13:37:45;100153.56;;;28.10
45393;BMP280;31129;44.810;10.334;2023-04-23T13:40:10;100153.31;;;28.06
45393;BMP280;31129;44.810;10.334;2023-04-23T13:42:36;100150.75;;;27.31
45393;BMP280;31129;44.810;10.334;2023-04-23T13:45:01;100155.22;;;27.13